Aurora — ZCDW9 — position and weather

sailwx.info

Track history (hours):
 
Tides and Currents Weather Stations Pressure Air Temp Water Temp Dewpoint Dewpoint Depression Visibility Wind Speed Wind Dir Waves Ship Positions

Aurora (Bermuda)

Last reported at 2017-May-29 11:29 UTC. Time now 2017-May-29 11:31 UTC.
Position N 50°54' W 001°26'.

Length 271 m; draft 8.3 m.

Type: Ship. MMSI: 310555970.

Date/timePositionNaut miles runAvg speedWind from/ knotsBaromVisibWave heightAir tempDewpointWater temp
2017-May-29 11:29N 50°54' W 001°26'0 0.0
2017-May-29 10:59N 50°54' W 001°26'0 0.0
2017-May-29 10:29N 50°54' W 001°26'0 0.0
2017-May-29 09:59N 50°54' W 001°26'0 0.0
2017-May-29 09:29N 50°54' W 001°26'0 0.0
2017-May-29 08:59N 50°54' W 001°26'0 0.0
2017-May-29 08:26N 50°54' W 001°26'0 0.0
2017-May-29 07:59N 50°54' W 001°26'0 0.0
2017-May-29 07:29N 50°54' W 001°26'0 0.0
2017-May-29 06:59N 50°54' W 001°26'0 0.0
2017-May-29 06:29N 50°54' W 001°26'0 0.0
2017-May-29 05:59N 50°54' W 001°26'0 0.0
2017-May-29 05:29N 50°54' W 001°26'0 0.2
2017-May-29 05:00N 50°54' W 001°26'3 6.9
2017-May-29 04:30N 50°52' W 001°22'5 9.4
2017-May-29 04:01N 50°48' W 001°18'510.0
2017-May-29 03:30N 50°46' W 001°11'817.0
2017-May-29 03:01N 50°42' W 000°58'611.5
2017-May-29 02:31N 50°37' W 000°54'713.4
2017-May-29 02:00N 50°36' W 000°44'714.5
2017-May-29 01:30N 50°35' W 000°33'815.1
2017-May-29 01:00N 50°33' W 000°21'714.3
2017-May-29 00:30N 50°32' W 000°10'714.2
2017-May-29 00:00N 50°32' E 000°01'2117.2
2017-May-29 00:00N 50°30' E 000°00'917.9 070 / 161014.2 5.4 13.912.512.0
2017-May-28 23:30N 50°34' E 000°12'714.5
2017-May-28 23:00N 50°36' E 000°23'714.7
2017-May-28 22:30N 50°38' E 000°34'815.8
2017-May-28 22:00N 50°43' E 000°44'816.9
2017-May-28 21:30N 50°48' E 000°55'918.2
2017-May-28 21:00N 50°52' E 001°08'918.8
2017-May-28 20:30N 50°57' E 001°21'1019.9
2017-May-28 20:00N 51°05' E 001°31'1019.7
2017-May-28 19:30N 51°12' E 001°42'1121.2
2017-May-28 19:00N 51°21' E 001°50'1020.1
2017-May-28 18:30N 51°29' E 001°58'1019.7
2017-May-28 18:00N 51°36' E 002°10'1019.4
2017-May-28 17:30N 51°43' E 002°20'1019.0
2017-May-28 17:00N 51°51' E 002°29'5321.0
2017-May-28 17:00N 51°48' E 002°24'1326.7 120 / 51017.310.8 15.813.512.0
2017-May-28 16:30N 51°59' E 002°35'815.4
2017-May-28 16:00N 52°07' E 002°37'815.2
2017-May-28 15:30N 52°14' E 002°40'815.8
2017-May-28 15:00N 52°21' E 002°46'1817.6
2017-May-28 14:00N 52°37' E 002°59'1020.4
2017-May-28 13:30N 52°46' E 003°07'1020.8
2017-May-28 13:00N 52°55' E 003°14'1020.9
2017-May-28 12:30N 53°05' E 003°21'1420.9
2017-May-28 11:51N 53°18' E 003°28'820.9
2017-May-28 11:28N 53°25' E 003°31'1220.6
2017-May-28 10:54N 53°37' E 003°36'5216.8
2017-May-28 07:47N 54°14' E 004°38'716.1
2017-May-28 07:21N 54°20' E 004°45'3414.4
2017-May-28 05:00N 54°48' E 005°18'8822.1 190 / 151013.310.8 13.5 12.0
2017-May-28 01:00N 56°00' E 006°48'2121.2 180 / 301012.610.8 14.113.011.0
2017-May-28 00:00N 56°17' E 007°09'1120.1
2017-May-27 23:27N 56°27' E 007°21'1220.2
2017-May-27 22:50N 56°37' E 007°34'720.2
2017-May-27 22:30N 56°42' E 007°40'1020.2
2017-May-27 22:00N 56°51' E 007°50'181411.8
2017-May-27 22:00N 56°36' E 007°30'2857.4 140 / 401013.510.8 16.214.112.0
2017-May-27 21:30N 56°59' E 008°00'1719.9
2017-May-27 20:37N 57°14' E 008°15'220.2
2017-May-27 20:30N 57°16' E 008°18'1020.0
2017-May-27 19:59N 57°23' E 008°32'1119.6
2017-May-27 19:26N 57°28' E 008°50'819.5
2017-May-27 19:00N 57°32' E 009°04'1019.9
2017-May-27 18:30N 57°37' E 009°20'1120.8
2017-May-27 17:59N 57°40' E 009°40'1021.0
2017-May-27 17:30N 57°43' E 009°57'1020.1
2017-May-27 17:00N 57°47' E 010°15'918.5
2017-May-27 16:30N 57°48' E 010°32'816.2
2017-May-27 16:00N 57°49' E 010°47'713.0
2017-May-27 15:30N 57°43' E 010°41'3 6.1
2017-May-27 15:00N 57°43' E 010°36'0 0.5
2017-May-27 14:29N 57°43' E 010°35'0 0.0
2017-May-27 13:30N 57°43' E 010°35'0 0.0
2017-May-27 13:00N 57°43' E 010°35'0 0.0
2017-May-27 12:23N 57°43' E 010°35'0 0.0
2017-May-27 11:52N 57°43' E 010°35'0 0.0
2017-May-27 11:29N 57°43' E 010°35'0 0.0
2017-May-27 10:54N 57°43' E 010°35'0 0.0
2017-May-27 10:15N 57°43' E 010°35'0 0.0
2017-May-27 09:57N 57°43' E 010°35'0 0.0
2017-May-27 09:27N 57°43' E 010°35'0 0.0
2017-May-27 08:57N 57°43' E 010°35'0 0.0
2017-May-27 08:30N 57°43' E 010°35'0 0.0
2017-May-27 08:00N 57°43' E 010°35'0 0.0
2017-May-27 07:30N 57°43' E 010°35'0 0.0
2017-May-27 07:00N 57°43' E 010°35'0 0.0
2017-May-27 06:18N 57°43' E 010°35'0 0.6
2017-May-27 06:00N 57°43' E 010°35'5 9.1
2017-May-27 05:30N 57°44' E 010°44'611.5
2017-May-27 04:58N 57°50' E 010°43'613.9
2017-May-27 04:31N 57°56' E 010°38'2 3.8
2017-May-27 04:00N 57°54' E 010°36'91154.9 240 / 161019.9 10.810.813.0
2017-May-27 03:59N 58°03' E 010°41'715.3
2017-May-27 03:31N 58°10' E 010°38'816.2
2017-May-27 03:01N 58°18' E 010°36'816.1
2017-May-27 02:31N 58°26' E 010°32'816.1
2017-May-27 02:01N 58°34' E 010°30'4218.6
2017-May-27 02:00N 58°36' E 010°24'611.8 180 / 71019.510.8 13.512.613.0
2017-May-27 01:31N 58°41' E 010°27'815.3
2017-May-27 01:01N 58°49' E 010°27'816.0
2017-May-27 00:31N 58°57' E 010°31'815.3
2017-May-27 00:00N 59°04' E 010°34'713.5
2017-May-26 23:30N 59°11' E 010°38'816.9
2017-May-26 23:00N 59°19' E 010°35'816.6
2017-May-26 22:31N 59°27' E 010°33'815.6
2017-May-26 22:01N 59°35' E 010°38'612.9
2017-May-26 21:30N 59°41' E 010°36'612.9
2017-May-26 21:00N 59°48' E 010°34'714.7
2017-May-26 20:30N 59°54' E 010°42'2 3.2
2017-May-26 20:00N 59°54' E 010°45'0 0.0
2017-May-26 19:31N 59°54' E 010°45'0 0.0
2017-May-26 19:01N 59°54' E 010°45'0 0.0
2017-May-26 18:28N 59°54' E 010°45'0 0.0
2017-May-26 17:58N 59°54' E 010°45'0 0.0
2017-May-26 17:28N 59°54' E 010°45'0 0.0
2017-May-26 17:01N 59°54' E 010°45'0 0.0
2017-May-26 16:31N 59°54' E 010°45'0 0.0
2017-May-26 16:01N 59°54' E 010°45'0 0.0
2017-May-26 15:28N 59°54' E 010°45'0 0.0
2017-May-26 15:01N 59°54' E 010°45'0 0.0
2017-May-26 14:28N 59°54' E 010°45'0 0.0
2017-May-26 13:28N 59°54' E 010°45'0 0.0
2017-May-26 13:01N 59°54' E 010°45'0 0.0
2017-May-26 12:31N 59°54' E 010°45'0 0.0
2017-May-26 12:01N 59°54' E 010°45'0 0.0
2017-May-26 11:28N 59°54' E 010°45'0 0.0
2017-May-26 10:58N 59°54' E 010°45'0 0.0
2017-May-26 10:31N 59°54' E 010°45'0 0.0
2017-May-26 10:01N 59°54' E 010°45'0 0.0
2017-May-26 09:31N 59°54' E 010°45'0 0.0
2017-May-26 08:58N 59°54' E 010°45'0 0.0
2017-May-26 08:31N 59°54' E 010°45'0 0.0
2017-May-26 07:58N 59°54' E 010°45'0 0.0
2017-May-26 07:31N 59°54' E 010°45'1 1.8
2017-May-26 07:00N 59°54' E 010°43'713.4
2017-May-26 06:30N 59°49' E 010°35'815.1
2017-May-26 06:00N 59°41' E 010°36'713.1
2017-May-26 05:30N 59°35' E 010°38'815.5
2017-May-26 05:00N 59°27' E 010°34'917.1
2017-May-26 04:30N 59°19' E 010°36'917.2
2017-May-26 04:00N 59°10' E 010°39'713.8
2017-May-26 03:30N 59°04' E 010°34'612.2
2017-May-26 03:00N 58°58' E 010°34'611.9
2017-May-26 02:30N 58°52' E 010°33'714.7
2017-May-26 02:00N 58°44' E 010°33'9584.4
2017-May-26 02:00N 58°36' E 010°30'1 2.9 320 / 291017.110.8 14.511.512.0
2017-May-26 01:30N 58°37' E 010°32'816.3
2017-May-26 01:00N 58°29' E 010°33'1122.0
2017-May-26 00:30N 58°18' E 010°38'1122.1
2017-May-26 00:00N 58°08' E 010°46'1122.2
2017-May-25 23:30N 57°58' E 010°57'1121.8
2017-May-25 23:00N 57°49' E 011°08'1121.4
2017-May-25 22:30N 57°40' E 011°17'1121.1
2017-May-25 22:00N 57°31' E 011°27'1020.3
2017-May-25 21:31N 57°21' E 011°34'1120.8
2017-May-25 21:00N 57°11' E 011°38'1121.0
2017-May-25 20:29N 57°00' E 011°45'1320.5
2017-May-25 19:50N 56°48' E 011°54'720.5
2017-May-25 19:31N 56°42' E 011°56'2819.6
2017-May-25 18:04N 56°16' E 012°15'220.2
2017-May-25 17:58N 56°14' E 012°18'919.8
2017-May-25 17:30N 56°08' E 012°31'917.9
2017-May-25 17:00N 56°01' E 012°41'816.3
2017-May-25 16:30N 55°53' E 012°44'714.9
2017-May-25 16:00N 55°46' E 012°42'342103.6
2017-May-25 16:00N 55°54' E 011°42'3368.6 310 / 251017.410.8 16.2 9.812.0
2017-May-25 15:30N 55°43' E 012°38'0 0.0
2017-May-25 15:00N 55°43' E 012°38'0 0.0
2017-May-25 14:00N 55°43' E 012°38'0 0.0
2017-May-25 13:30N 55°43' E 012°38'0 0.0
2017-May-25 13:00N 55°43' E 012°38'0 0.0
2017-May-25 12:30N 55°43' E 012°38'0 0.0
2017-May-25 12:00N 55°43' E 012°38'0 0.0
2017-May-25 11:30N 55°43' E 012°38'0 0.0
2017-May-25 11:00N 55°43' E 012°38'0 0.0
2017-May-25 10:30N 55°43' E 012°38'0 0.0
2017-May-25 10:00N 55°43' E 012°38'0 0.0
2017-May-25 09:30N 55°43' E 012°38'0 0.0
2017-May-25 09:00N 55°43' E 012°38'0 0.0
2017-May-25 08:30N 55°43' E 012°38'0 0.0
2017-May-25 08:00N 55°43' E 012°38'0 0.0
2017-May-25 07:30N 55°43' E 012°38'0 0.0
2017-May-25 07:00N 55°43' E 012°38'1 2.1
2017-May-25 06:30N 55°44' E 012°39'5 9.8
2017-May-25 06:00N 55°48' E 012°42'816.1
2017-May-25 05:30N 55°56' E 012°39'714.3
2017-May-25 05:01N 56°03' E 012°39'713.0
2017-May-25 04:31N 56°07' E 012°29'816.9
2017-May-25 04:01N 56°11' E 012°16'1119.4
2017-May-25 03:28N 56°10' E 011°57'3624.3
2017-May-25 02:00N 55°54' E 011°00'4211.1 290 / 421016.010.8 11.3 9.612.0
2017-May-24 22:09N 55°12' E 011°05'415.1
2017-May-24 21:52N 55°07' E 011°03'515.2
2017-May-24 21:30N 55°02' E 011°02'715.0
2017-May-24 21:01N 54°56' E 010°56'815.4
2017-May-24 20:31N 54°48' E 010°52'815.3
2017-May-24 20:01N 54°41' E 010°57'816.5
2017-May-24 19:31N 54°38' E 011°10'816.5
2017-May-24 19:01N 54°34' E 011°23'815.3
2017-May-24 18:31N 54°27' E 011°29'1717.3
2017-May-24 17:30N 54°11' E 011°18'817.1
2017-May-24 17:01N 54°05' E 011°08'2142.5
2017-May-24 17:00N 54°06' E 011°12'7 0.5 300 / 351018.810.8 15.311.112.0
2017-May-24 04:09N 54°03' E 011°02'214.9
2017-May-24 04:00N 54°04' E 011°05'815.1
2017-May-24 03:30N 54°09' E 011°14'715.0
2017-May-24 03:00N 54°13' E 011°25'815.0
2017-May-24 02:29N 54°18' E 011°36'714.4
2017-May-24 02:00N 54°18' E 011°48'1515.7 290 / 421015.810.8 11.810.012.0
2017-May-24 01:02N 54°27' E 012°09'014.0
2017-May-24 01:00N 54°27' E 012°09'714.7
2017-May-24 00:30N 54°34' E 012°13'1214.6
2017-May-23 23:42N 54°43' E 012°27'315.3
2017-May-23 23:29N 54°44' E 012°32'715.0
2017-May-23 23:00N 54°48' E 012°43'814.3
2017-May-23 22:27N 54°51' E 012°55'714.5
2017-May-23 22:01N 54°53' E 013°06'814.7
2017-May-23 21:27N 54°56' E 013°19'1114.4
2017-May-23 20:42N 54°59' E 013°37'314.4
2017-May-23 20:31N 55°00' E 013°42'714.7
2017-May-23 20:00N 55°02' E 013°54'714.4
2017-May-23 19:30N 55°05' E 014°06'714.8
2017-May-23 19:01N 55°11' E 014°13'714.9
2017-May-23 18:31N 55°17' E 014°21'815.0
2017-May-23 18:00N 55°23' E 014°29'4364.2
2017-May-23 18:00N 55°24' E 014°36'4 8.6 210 / 181012.110.8 12.7 10.0
2017-May-23 17:30N 55°28' E 014°38'714.5
2017-May-23 17:00N 55°31' E 014°49'714.3
2017-May-23 16:30N 55°34' E 015°00'714.5
2017-May-23 16:01N 55°38' E 015°12'714.8
2017-May-23 15:30N 55°42' E 015°23'714.8
2017-May-23 15:00N 55°46' E 015°34'1514.7
2017-May-23 14:00N 55°52' E 015°58'714.7
2017-May-23 13:30N 55°56' E 016°09'714.5
2017-May-23 13:00N 55°59' E 016°20'714.8
2017-May-23 12:31N 56°03' E 016°31'714.6
2017-May-23 12:00N 56°07' E 016°42'714.5
2017-May-23 11:31N 56°12' E 016°52'714.5
2017-May-23 11:00N 56°17' E 017°02'714.7
2017-May-23 10:30N 56°21' E 017°12'7914.4
2017-May-23 05:00N 57°06' E 019°12'147 5.6 330 / 101013.610.8 10.3 7.9 8.2
2017-May-22 03:00N 57°12' E 023°42'13614.9 240 / 101016.010.8 12.511.111.0
2017-May-21 17:52N 59°18' E 022°05'821.9
2017-May-21 17:29N 59°19' E 022°21'1021.9
2017-May-21 17:00N 59°20' E 022°41'1122.1
2017-May-21 16:30N 59°22' E 023°02'1121.5
2017-May-21 16:00N 59°24' E 023°23'92436.3
2017-May-21 16:00N 59°24' E 023°42'3 5.8 130 / 51016.810.8 14.5 8.2 9.0
2017-May-21 15:29N 59°27' E 023°45'3018.7
2017-May-21 13:52N 59°32' E 024°44'5 0.5
2017-May-21 03:48N 59°27' E 024°46'0 1.1
2017-May-21 03:28N 59°27' E 024°46'5 9.6
2017-May-21 03:00N 59°32' E 024°43'711.2
2017-May-21 02:25N 59°38' E 024°39'815.8
2017-May-21 01:55N 59°46' E 024°44'716.4
2017-May-21 01:30N 59°51' E 024°52'2317.7
2017-May-21 00:12N 59°55' E 025°38'518.0
2017-May-20 23:56N 59°56' E 025°47'917.8
2017-May-20 23:26N 59°59' E 026°04'715.2
2017-May-20 23:00N 60°01' E 026°16'714.3
2017-May-20 22:30N 60°01' E 026°30'917.0
2017-May-20 22:00N 60°00' E 026°47'917.2
2017-May-20 21:30N 59°60' E 027°04'918.0
2017-May-20 21:00N 60°04' E 027°20'1021.0
2017-May-20 20:30N 60°10' E 027°38'1019.7
2017-May-20 20:00N 60°11' E 027°57'1121.1
2017-May-20 19:30N 60°08' E 028°18'1020.4
2017-May-20 19:00N 60°03' E 028°36'1020.9
2017-May-20 18:30N 60°03' E 028°57'1020.6
2017-May-20 18:00N 60°02' E 029°17'1113.3
2017-May-20 17:12N 59°60' E 029°39'210.7
2017-May-20 16:58N 59°59' E 029°43'4 9.2
2017-May-20 16:31N 59°57' E 029°51'611.0
2017-May-20 16:00N 59°55' E 030°01'5 9.7
2017-May-20 15:30N 59°57' E 030°10'1 1.3
2017-May-20 15:00N 59°57' E 030°12'0 0.0
2017-May-20 14:30N 59°57' E 030°12'0 0.0
2017-May-20 13:30N 59°57' E 030°12'0 0.0
2017-May-20 13:00N 59°57' E 030°12'0 0.0
2017-May-20 12:30N 59°57' E 030°12'0 0.0
2017-May-20 12:00N 59°57' E 030°12'0 0.0
2017-May-20 11:30N 59°57' E 030°12'0 0.0
2017-May-20 11:00N 59°57' E 030°12'0 0.0
2017-May-20 10:30N 59°57' E 030°12'0 0.0
2017-May-20 10:00N 59°57' E 030°12'0 0.0
2017-May-20 09:30N 59°57' E 030°12'0 0.0
2017-May-20 09:00N 59°57' E 030°12'0 0.0
2017-May-20 08:30N 59°57' E 030°12'0 0.0
2017-May-20 08:00N 59°57' E 030°12'0 0.0
2017-May-20 07:30N 59°57' E 030°12'0 0.0
2017-May-20 07:00N 59°57' E 030°12'0 0.0
2017-May-20 06:24N 59°57' E 030°12'0 0.0
2017-May-20 06:00N 59°57' E 030°12'0 0.0
2017-May-20 05:30N 59°57' E 030°12'0 0.0
2017-May-20 05:00N 59°57' E 030°12'0 0.0
2017-May-20 04:30N 59°57' E 030°12'0 0.0
2017-May-20 04:00N 59°57' E 030°12'0 0.0
2017-May-20 03:30N 59°57' E 030°12'0 0.0
2017-May-20 03:00N 59°57' E 030°12'0 0.0
2017-May-20 02:30N 59°57' E 030°12'0 0.0
2017-May-20 02:00N 59°57' E 030°12'0 0.0
2017-May-20 01:30N 59°57' E 030°12'0 0.0
2017-May-20 01:00N 59°57' E 030°12'0 0.0
2017-May-20 00:30N 59°57' E 030°12'0 0.0
2017-May-20 00:00N 59°57' E 030°12'0 0.0
2017-May-19 23:30N 59°57' E 030°12'0 0.0
2017-May-19 23:00N 59°57' E 030°12'0 0.0
2017-May-19 22:30N 59°57' E 030°12'0 0.0
2017-May-19 22:00N 59°57' E 030°12'0 0.0
2017-May-19 21:30N 59°57' E 030°12'0 0.0
2017-May-19 21:00N 59°57' E 030°12'0 0.0
2017-May-19 20:30N 59°57' E 030°12'0 0.0
2017-May-19 20:00N 59°57' E 030°12'0 0.0
2017-May-19 19:30N 59°57' E 030°12'0 0.0
2017-May-19 19:00N 59°57' E 030°12'0 0.0
2017-May-19 18:30N 59°57' E 030°11'0 0.0
2017-May-19 18:00N 59°57' E 030°11'0 0.0
2017-May-19 17:30N 59°57' E 030°12'0 0.0
2017-May-19 17:00N 59°57' E 030°12'0 0.0
2017-May-19 16:30N 59°57' E 030°12'0 0.0
2017-May-19 16:00N 59°57' E 030°11'0 0.0
2017-May-19 15:30N 59°57' E 030°12'0 0.0
2017-May-19 15:00N 59°57' E 030°12'0 0.0
2017-May-19 13:58N 59°57' E 030°12'0 0.0
2017-May-19 13:28N 59°57' E 030°11'0 0.0
2017-May-19 12:49N 59°57' E 030°12'0 0.0
2017-May-19 12:28N 59°57' E 030°11'0 0.0
2017-May-19 11:58N 59°57' E 030°12'  
Track history (hours):
 
Tides and Currents Weather Stations Pressure Air Temp Water Temp Dewpoint Dewpoint Depression Visibility Wind Speed Wind Dir Waves Ship Positions

Aurora (Bermuda)

Last reported at 2017-May-29 11:29 UTC. Time now 2017-May-29 11:31 UTC.
Position N 50°54' W 001°26'.

Length 271 m; draft 8.3 m.

Type: Ship. MMSI: 310555970.

Date/timePositionNaut miles runAvg speedWind from/ knotsBaromVisibWave heightAir tempDewpointWater temp
2017-May-29 11:29N 50°54' W 001°26'0 0.0
2017-May-29 10:59N 50°54' W 001°26'0 0.0
2017-May-29 10:29N 50°54' W 001°26'0 0.0
2017-May-29 09:59N 50°54' W 001°26'0 0.0
2017-May-29 09:29N 50°54' W 001°26'0 0.0
2017-May-29 08:59N 50°54' W 001°26'0 0.0
2017-May-29 08:26N 50°54' W 001°26'0 0.0
2017-May-29 07:59N 50°54' W 001°26'0 0.0
2017-May-29 07:29N 50°54' W 001°26'0 0.0
2017-May-29 06:59N 50°54' W 001°26'0 0.0
2017-May-29 06:29N 50°54' W 001°26'0 0.0
2017-May-29 05:59N 50°54' W 001°26'0 0.0
2017-May-29 05:29N 50°54' W 001°26'0 0.2
2017-May-29 05:00N 50°54' W 001°26'3 6.9
2017-May-29 04:30N 50°52' W 001°22'5 9.4
2017-May-29 04:01N 50°48' W 001°18'510.0
2017-May-29 03:30N 50°46' W 001°11'817.0
2017-May-29 03:01N 50°42' W 000°58'611.5
2017-May-29 02:31N 50°37' W 000°54'713.4
2017-May-29 02:00N 50°36' W 000°44'714.5
2017-May-29 01:30N 50°35' W 000°33'815.1
2017-May-29 01:00N 50°33' W 000°21'714.3
2017-May-29 00:30N 50°32' W 000°10'714.2
2017-May-29 00:00N 50°32' E 000°01'2117.2
2017-May-29 00:00N 50°30' E 000°00'917.9 070 / 161014.2 5.4 13.912.512.0
2017-May-28 23:30N 50°34' E 000°12'714.5
2017-May-28 23:00N 50°36' E 000°23'714.7
2017-May-28 22:30N 50°38' E 000°34'815.8
2017-May-28 22:00N 50°43' E 000°44'816.9
2017-May-28 21:30N 50°48' E 000°55'918.2
2017-May-28 21:00N 50°52' E 001°08'918.8
2017-May-28 20:30N 50°57' E 001°21'1019.9
2017-May-28 20:00N 51°05' E 001°31'1019.7
2017-May-28 19:30N 51°12' E 001°42'1121.2
2017-May-28 19:00N 51°21' E 001°50'1020.1
2017-May-28 18:30N 51°29' E 001°58'1019.7
2017-May-28 18:00N 51°36' E 002°10'1019.4
2017-May-28 17:30N 51°43' E 002°20'1019.0
2017-May-28 17:00N 51°51' E 002°29'5321.0
2017-May-28 17:00N 51°48' E 002°24'1326.7 120 / 51017.310.8 15.813.512.0
2017-May-28 16:30N 51°59' E 002°35'815.4
2017-May-28 16:00N 52°07' E 002°37'815.2
2017-May-28 15:30N 52°14' E 002°40'815.8
2017-May-28 15:00N 52°21' E 002°46'1817.6
2017-May-28 14:00N 52°37' E 002°59'1020.4
2017-May-28 13:30N 52°46' E 003°07'1020.8
2017-May-28 13:00N 52°55' E 003°14'1020.9
2017-May-28 12:30N 53°05' E 003°21'1420.9
2017-May-28 11:51N 53°18' E 003°28'820.9
2017-May-28 11:28N 53°25' E 003°31'1220.6
2017-May-28 10:54N 53°37' E 003°36'5216.8
2017-May-28 07:47N 54°14' E 004°38'716.1
2017-May-28 07:21N 54°20' E 004°45'3414.4
2017-May-28 05:00N 54°48' E 005°18'8822.1 190 / 151013.310.8 13.5 12.0
2017-May-28 01:00N 56°00' E 006°48'2121.2 180 / 301012.610.8 14.113.011.0
2017-May-28 00:00N 56°17' E 007°09'1120.1
2017-May-27 23:27N 56°27' E 007°21'1220.2
2017-May-27 22:50N 56°37' E 007°34'720.2
2017-May-27 22:30N 56°42' E 007°40'1020.2
2017-May-27 22:00N 56°51' E 007°50'181411.8
2017-May-27 22:00N 56°36' E 007°30'2857.4 140 / 401013.510.8 16.214.112.0
2017-May-27 21:30N 56°59' E 008°00'1719.9
2017-May-27 20:37N 57°14' E 008°15'220.2
2017-May-27 20:30N 57°16' E 008°18'1020.0
2017-May-27 19:59N 57°23' E 008°32'1119.6
2017-May-27 19:26N 57°28' E 008°50'819.5
2017-May-27 19:00N 57°32' E 009°04'1019.9
2017-May-27 18:30N 57°37' E 009°20'1120.8
2017-May-27 17:59N 57°40' E 009°40'1021.0
2017-May-27 17:30N 57°43' E 009°57'1020.1
2017-May-27 17:00N 57°47' E 010°15'918.5
2017-May-27 16:30N 57°48' E 010°32'816.2
2017-May-27 16:00N 57°49' E 010°47'713.0
2017-May-27 15:30N 57°43' E 010°41'3 6.1
2017-May-27 15:00N 57°43' E 010°36'0 0.5
2017-May-27 14:29N 57°43' E 010°35'0 0.0
2017-May-27 13:30N 57°43' E 010°35'0 0.0
2017-May-27 13:00N 57°43' E 010°35'0 0.0
2017-May-27 12:23N 57°43' E 010°35'0 0.0
2017-May-27 11:52N 57°43' E 010°35'0 0.0
2017-May-27 11:29N 57°43' E 010°35'0 0.0
2017-May-27 10:54N 57°43' E 010°35'0 0.0
2017-May-27 10:15N 57°43' E 010°35'0 0.0
2017-May-27 09:57N 57°43' E 010°35'0 0.0
2017-May-27 09:27N 57°43' E 010°35'0 0.0
2017-May-27 08:57N 57°43' E 010°35'0 0.0
2017-May-27 08:30N 57°43' E 010°35'0 0.0
2017-May-27 08:00N 57°43' E 010°35'0 0.0
2017-May-27 07:30N 57°43' E 010°35'0 0.0
2017-May-27 07:00N 57°43' E 010°35'0 0.0
2017-May-27 06:18N 57°43' E 010°35'0 0.6
2017-May-27 06:00N 57°43' E 010°35'5 9.1
2017-May-27 05:30N 57°44' E 010°44'611.5
2017-May-27 04:58N 57°50' E 010°43'613.9
2017-May-27 04:31N 57°56' E 010°38'2 3.8
2017-May-27 04:00N 57°54' E 010°36'91154.9 240 / 161019.9 10.810.813.0
2017-May-27 03:59N 58°03' E 010°41'715.3
2017-May-27 03:31N 58°10' E 010°38'816.2
2017-May-27 03:01N 58°18' E 010°36'816.1
2017-May-27 02:31N 58°26' E 010°32'816.1
2017-May-27 02:01N 58°34' E 010°30'4218.6
2017-May-27 02:00N 58°36' E 010°24'611.8 180 / 71019.510.8 13.512.613.0
2017-May-27 01:31N 58°41' E 010°27'815.3
2017-May-27 01:01N 58°49' E 010°27'816.0
2017-May-27 00:31N 58°57' E 010°31'815.3
2017-May-27 00:00N 59°04' E 010°34'713.5
2017-May-26 23:30N 59°11' E 010°38'816.9
2017-May-26 23:00N 59°19' E 010°35'816.6
2017-May-26 22:31N 59°27' E 010°33'815.6
2017-May-26 22:01N 59°35' E 010°38'612.9
2017-May-26 21:30N 59°41' E 010°36'612.9
2017-May-26 21:00N 59°48' E 010°34'714.7
2017-May-26 20:30N 59°54' E 010°42'2 3.2
2017-May-26 20:00N 59°54' E 010°45'0 0.0
2017-May-26 19:31N 59°54' E 010°45'0 0.0
2017-May-26 19:01N 59°54' E 010°45'0 0.0
2017-May-26 18:28N 59°54' E 010°45'0 0.0
2017-May-26 17:58N 59°54' E 010°45'0 0.0
2017-May-26 17:28N 59°54' E 010°45'0 0.0
2017-May-26 17:01N 59°54' E 010°45'0 0.0
2017-May-26 16:31N 59°54' E 010°45'0 0.0
2017-May-26 16:01N 59°54' E 010°45'0 0.0
2017-May-26 15:28N 59°54' E 010°45'0 0.0
2017-May-26 15:01N 59°54' E 010°45'0 0.0
2017-May-26 14:28N 59°54' E 010°45'0 0.0
2017-May-26 13:28N 59°54' E 010°45'0 0.0
2017-May-26 13:01N 59°54' E 010°45'0 0.0
2017-May-26 12:31N 59°54' E 010°45'0 0.0
2017-May-26 12:01N 59°54' E 010°45'0 0.0
2017-May-26 11:28N 59°54' E 010°45'0 0.0
2017-May-26 10:58N 59°54' E 010°45'0 0.0
2017-May-26 10:31N 59°54' E 010°45'0 0.0
2017-May-26 10:01N 59°54' E 010°45'0 0.0
2017-May-26 09:31N 59°54' E 010°45'0 0.0
2017-May-26 08:58N 59°54' E 010°45'0 0.0
2017-May-26 08:31N 59°54' E 010°45'0 0.0
2017-May-26 07:58N 59°54' E 010°45'0 0.0
2017-May-26 07:31N 59°54' E 010°45'1 1.8
2017-May-26 07:00N 59°54' E 010°43'713.4
2017-May-26 06:30N 59°49' E 010°35'815.1
2017-May-26 06:00N 59°41' E 010°36'713.1
2017-May-26 05:30N 59°35' E 010°38'815.5
2017-May-26 05:00N 59°27' E 010°34'917.1
2017-May-26 04:30N 59°19' E 010°36'917.2
2017-May-26 04:00N 59°10' E 010°39'713.8
2017-May-26 03:30N 59°04' E 010°34'612.2
2017-May-26 03:00N 58°58' E 010°34'611.9
2017-May-26 02:30N 58°52' E 010°33'714.7
2017-May-26 02:00N 58°44' E 010°33'9584.4
2017-May-26 02:00N 58°36' E 010°30'1 2.9 320 / 291017.110.8 14.511.512.0
2017-May-26 01:30N 58°37' E 010°32'816.3
2017-May-26 01:00N 58°29' E 010°33'1122.0
2017-May-26 00:30N 58°18' E 010°38'1122.1
2017-May-26 00:00N 58°08' E 010°46'1122.2
2017-May-25 23:30N 57°58' E 010°57'1121.8
2017-May-25 23:00N 57°49' E 011°08'1121.4
2017-May-25 22:30N 57°40' E 011°17'1121.1
2017-May-25 22:00N 57°31' E 011°27'1020.3
2017-May-25 21:31N 57°21' E 011°34'1120.8
2017-May-25 21:00N 57°11' E 011°38'1121.0
2017-May-25 20:29N 57°00' E 011°45'1320.5
2017-May-25 19:50N 56°48' E 011°54'720.5
2017-May-25 19:31N 56°42' E 011°56'2819.6
2017-May-25 18:04N 56°16' E 012°15'220.2
2017-May-25 17:58N 56°14' E 012°18'919.8
2017-May-25 17:30N 56°08' E 012°31'917.9
2017-May-25 17:00N 56°01' E 012°41'816.3
2017-May-25 16:30N 55°53' E 012°44'714.9
2017-May-25 16:00N 55°46' E 012°42'342103.6
2017-May-25 16:00N 55°54' E 011°42'3368.6 310 / 251017.410.8 16.2 9.812.0
2017-May-25 15:30N 55°43' E 012°38'0 0.0
2017-May-25 15:00N 55°43' E 012°38'0 0.0
2017-May-25 14:00N 55°43' E 012°38'0 0.0
2017-May-25 13:30N 55°43' E 012°38'0 0.0
2017-May-25 13:00N 55°43' E 012°38'0 0.0
2017-May-25 12:30N 55°43' E 012°38'0 0.0
2017-May-25 12:00N 55°43' E 012°38'0 0.0
2017-May-25 11:30N 55°43' E 012°38'0 0.0
2017-May-25 11:00N 55°43' E 012°38'0 0.0
2017-May-25 10:30N 55°43' E 012°38'0 0.0
2017-May-25 10:00N 55°43' E 012°38'0 0.0
2017-May-25 09:30N 55°43' E 012°38'0 0.0
2017-May-25 09:00N 55°43' E 012°38'0 0.0
2017-May-25 08:30N 55°43' E 012°38'0 0.0
2017-May-25 08:00N 55°43' E 012°38'0 0.0
2017-May-25 07:30N 55°43' E 012°38'0 0.0
2017-May-25 07:00N 55°43' E 012°38'1 2.1
2017-May-25 06:30N 55°44' E 012°39'5 9.8
2017-May-25 06:00N 55°48' E 012°42'816.1
2017-May-25 05:30N 55°56' E 012°39'714.3
2017-May-25 05:01N 56°03' E 012°39'713.0
2017-May-25 04:31N 56°07' E 012°29'816.9
2017-May-25 04:01N 56°11' E 012°16'1119.4
2017-May-25 03:28N 56°10' E 011°57'3624.3
2017-May-25 02:00N 55°54' E 011°00'4211.1 290 / 421016.010.8 11.3 9.612.0
2017-May-24 22:09N 55°12' E 011°05'415.1
2017-May-24 21:52N 55°07' E 011°03'515.2
2017-May-24 21:30N 55°02' E 011°02'715.0
2017-May-24 21:01N 54°56' E 010°56'815.4
2017-May-24 20:31N 54°48' E 010°52'815.3
2017-May-24 20:01N 54°41' E 010°57'816.5
2017-May-24 19:31N 54°38' E 011°10'816.5
2017-May-24 19:01N 54°34' E 011°23'815.3
2017-May-24 18:31N 54°27' E 011°29'1717.3
2017-May-24 17:30N 54°11' E 011°18'817.1
2017-May-24 17:01N 54°05' E 011°08'2142.5
2017-May-24 17:00N 54°06' E 011°12'7 0.5 300 / 351018.810.8 15.311.112.0
2017-May-24 04:09N 54°03' E 011°02'214.9
2017-May-24 04:00N 54°04' E 011°05'815.1
2017-May-24 03:30N 54°09' E 011°14'715.0
2017-May-24 03:00N 54°13' E 011°25'815.0
2017-May-24 02:29N 54°18' E 011°36'714.4
2017-May-24 02:00N 54°18' E 011°48'1515.7 290 / 421015.810.8 11.810.012.0
2017-May-24 01:02N 54°27' E 012°09'014.0
2017-May-24 01:00N 54°27' E 012°09'714.7
2017-May-24 00:30N 54°34' E 012°13'1214.6
2017-May-23 23:42N 54°43' E 012°27'315.3
2017-May-23 23:29N 54°44' E 012°32'715.0
2017-May-23 23:00N 54°48' E 012°43'814.3
2017-May-23 22:27N 54°51' E 012°55'714.5
2017-May-23 22:01N 54°53' E 013°06'814.7
2017-May-23 21:27N 54°56' E 013°19'1114.4
2017-May-23 20:42N 54°59' E 013°37'314.4
2017-May-23 20:31N 55°00' E 013°42'714.7
2017-May-23 20:00N 55°02' E 013°54'714.4
2017-May-23 19:30N 55°05' E 014°06'714.8
2017-May-23 19:01N 55°11' E 014°13'714.9
2017-May-23 18:31N 55°17' E 014°21'815.0
2017-May-23 18:00N 55°23' E 014°29'4364.2
2017-May-23 18:00N 55°24' E 014°36'4 8.6 210 / 181012.110.8 12.7 10.0
2017-May-23 17:30N 55°28' E 014°38'714.5
2017-May-23 17:00N 55°31' E 014°49'714.3
2017-May-23 16:30N 55°34' E 015°00'714.5
2017-May-23 16:01N 55°38' E 015°12'714.8
2017-May-23 15:30N 55°42' E 015°23'714.8
2017-May-23 15:00N 55°46' E 015°34'1514.7
2017-May-23 14:00N 55°52' E 015°58'714.7
2017-May-23 13:30N 55°56' E 016°09'714.5
2017-May-23 13:00N 55°59' E 016°20'714.8
2017-May-23 12:31N 56°03' E 016°31'714.6
2017-May-23 12:00N 56°07' E 016°42'714.5
2017-May-23 11:31N 56°12' E 016°52'714.5
2017-May-23 11:00N 56°17' E 017°02'714.7
2017-May-23 10:30N 56°21' E 017°12'7914.4
2017-May-23 05:00N 57°06' E 019°12'147 5.6 330 / 101013.610.8 10.3 7.9 8.2
2017-May-22 03:00N 57°12' E 023°42'13614.9 240 / 101016.010.8 12.511.111.0
2017-May-21 17:52N 59°18' E 022°05'821.9
2017-May-21 17:29N 59°19' E 022°21'1021.9
2017-May-21 17:00N 59°20' E 022°41'1122.1
2017-May-21 16:30N 59°22' E 023°02'1121.5
2017-May-21 16:00N 59°24' E 023°23'92436.3
2017-May-21 16:00N 59°24' E 023°42'3 5.8 130 / 51016.810.8 14.5 8.2 9.0
2017-May-21 15:29N 59°27' E 023°45'3018.7
2017-May-21 13:52N 59°32' E 024°44'5 0.5
2017-May-21 03:48N 59°27' E 024°46'0 1.1
2017-May-21 03:28N 59°27' E 024°46'5 9.6
2017-May-21 03:00N 59°32' E 024°43'711.2
2017-May-21 02:25N 59°38' E 024°39'815.8
2017-May-21 01:55N 59°46' E 024°44'716.4
2017-May-21 01:30N 59°51' E 024°52'2317.7
2017-May-21 00:12N 59°55' E 025°38'518.0
2017-May-20 23:56N 59°56' E 025°47'917.8
2017-May-20 23:26N 59°59' E 026°04'715.2
2017-May-20 23:00N 60°01' E 026°16'714.3
2017-May-20 22:30N 60°01' E 026°30'917.0
2017-May-20 22:00N 60°00' E 026°47'917.2
2017-May-20 21:30N 59°60' E 027°04'918.0
2017-May-20 21:00N 60°04' E 027°20'1021.0
2017-May-20 20:30N 60°10' E 027°38'1019.7
2017-May-20 20:00N 60°11' E 027°57'1121.1
2017-May-20 19:30N 60°08' E 028°18'1020.4
2017-May-20 19:00N 60°03' E 028°36'1020.9
2017-May-20 18:30N 60°03' E 028°57'1020.6
2017-May-20 18:00N 60°02' E 029°17'1113.3
2017-May-20 17:12N 59°60' E 029°39'210.7
2017-May-20 16:58N 59°59' E 029°43'4 9.2
2017-May-20 16:31N 59°57' E 029°51'611.0
2017-May-20 16:00N 59°55' E 030°01'5 9.7
2017-May-20 15:30N 59°57' E 030°10'1 1.3
2017-May-20 15:00N 59°57' E 030°12'0 0.0
2017-May-20 14:30N 59°57' E 030°12'0 0.0
2017-May-20 13:30N 59°57' E 030°12'0 0.0
2017-May-20 13:00N 59°57' E 030°12'0 0.0
2017-May-20 12:30N 59°57' E 030°12'0 0.0
2017-May-20 12:00N 59°57' E 030°12'0 0.0
2017-May-20 11:30N 59°57' E 030°12'0 0.0
2017-May-20 11:00N 59°57' E 030°12'0 0.0
2017-May-20 10:30N 59°57' E 030°12'0 0.0
2017-May-20 10:00N 59°57' E 030°12'0 0.0
2017-May-20 09:30N 59°57' E 030°12'0 0.0
2017-May-20 09:00N 59°57' E 030°12'0 0.0
2017-May-20 08:30N 59°57' E 030°12'0 0.0
2017-May-20 08:00N 59°57' E 030°12'0 0.0
2017-May-20 07:30N 59°57' E 030°12'0 0.0
2017-May-20 07:00N 59°57' E 030°12'0 0.0
2017-May-20 06:24N 59°57' E 030°12'0 0.0
2017-May-20 06:00N 59°57' E 030°12'0 0.0
2017-May-20 05:30N 59°57' E 030°12'0 0.0
2017-May-20 05:00N 59°57' E 030°12'0 0.0
2017-May-20 04:30N 59°57' E 030°12'0 0.0
2017-May-20 04:00N 59°57' E 030°12'0 0.0
2017-May-20 03:30N 59°57' E 030°12'0 0.0
2017-May-20 03:00N 59°57' E 030°12'0 0.0
2017-May-20 02:30N 59°57' E 030°12'0 0.0
2017-May-20 02:00N 59°57' E 030°12'0 0.0
2017-May-20 01:30N 59°57' E 030°12'0 0.0
2017-May-20 01:00N 59°57' E 030°12'0 0.0
2017-May-20 00:30N 59°57' E 030°12'0 0.0
2017-May-20 00:00N 59°57' E 030°12'0 0.0
2017-May-19 23:30N 59°57' E 030°12'0 0.0
2017-May-19 23:00N 59°57' E 030°12'0 0.0
2017-May-19 22:30N 59°57' E 030°12'0 0.0
2017-May-19 22:00N 59°57' E 030°12'0 0.0
2017-May-19 21:30N 59°57' E 030°12'0 0.0
2017-May-19 21:00N 59°57' E 030°12'0 0.0
2017-May-19 20:30N 59°57' E 030°12'0 0.0
2017-May-19 20:00N 59°57' E 030°12'0 0.0
2017-May-19 19:30N 59°57' E 030°12'0 0.0
2017-May-19 19:00N 59°57' E 030°12'0 0.0
2017-May-19 18:30N 59°57' E 030°11'0 0.0
2017-May-19 18:00N 59°57' E 030°11'0 0.0
2017-May-19 17:30N 59°57' E 030°12'0 0.0
2017-May-19 17:00N 59°57' E 030°12'0 0.0
2017-May-19 16:30N 59°57' E 030°12'0 0.0
2017-May-19 16:00N 59°57' E 030°11'0 0.0
2017-May-19 15:30N 59°57' E 030°12'0 0.0
2017-May-19 15:00N 59°57' E 030°12'0 0.0
2017-May-19 13:58N 59°57' E 030°12'0 0.0
2017-May-19 13:28N 59°57' E 030°11'0 0.0
2017-May-19 12:49N 59°57' E 030°12'0 0.0
2017-May-19 12:28N 59°57' E 030°11'0 0.0
2017-May-19 11:58N 59°57' E 030°12'  

Dump ship's entire track history